createdAt,value
2018-06-04T00:02:09.293Z,99.90
2018-06-04T00:07:04.947Z,99.90
2018-06-04T00:09:32.442Z,99.90
2018-06-04T00:11:59.973Z,99.90
2018-06-04T00:14:27.541Z,99.90
2018-06-04T00:16:55.057Z,99.90
2018-06-04T00:19:22.544Z,99.90
2018-06-04T00:21:50.078Z,99.90
2018-06-04T00:24:17.574Z,99.90
2018-06-04T00:26:46.263Z,99.90
2018-06-04T00:29:13.764Z,99.90
2018-06-04T00:31:41.320Z,99.90
2018-06-04T00:34:08.835Z,99.90
2018-06-04T00:36:36.408Z,99.90
2018-06-04T00:39:06.242Z,99.90
2018-06-04T00:41:33.764Z,99.90
2018-06-04T00:44:01.273Z,99.90
2018-06-04T00:46:28.856Z,99.90
2018-06-04T00:48:56.352Z,99.90
2018-06-04T00:51:23.874Z,99.90
2018-06-04T00:53:51.366Z,99.90
2018-06-04T00:56:21.070Z,99.90
2018-06-04T00:58:48.561Z,99.90
2018-06-04T01:01:16.092Z,99.90
2018-06-04T01:03:43.620Z,99.90
2018-06-04T01:06:11.129Z,99.90
2018-06-04T01:08:38.669Z,99.90
2018-06-04T01:11:06.973Z,99.90
2018-06-04T01:13:34.548Z,99.90
2018-06-04T01:16:02.054Z,99.90
2018-06-04T01:18:29.584Z,99.90
2018-06-04T01:20:57.115Z,99.90
2018-06-04T01:23:24.628Z,99.90
2018-06-04T01:25:52.247Z,99.90
2018-06-04T01:28:19.865Z,99.90
2018-06-04T01:30:47.376Z,99.90
2018-06-04T01:33:14.883Z,99.90
2018-06-04T01:35:42.377Z,99.90
2018-06-04T01:38:09.885Z,99.90
2018-06-04T01:40:37.457Z,99.90
2018-06-04T01:43:05.021Z,99.90
2018-06-04T01:45:32.512Z,99.90
2018-06-04T01:48:00.028Z,99.90
2018-06-04T01:50:27.996Z,99.90
2018-06-04T01:52:55.508Z,99.90
2018-06-04T01:55:23.013Z,99.90
2018-06-04T01:57:50.531Z,99.90
2018-06-04T02:00:18.082Z,99.90
2018-06-04T02:02:45.612Z,99.90
2018-06-04T02:05:13.110Z,99.90
2018-06-04T02:07:40.614Z,99.90
2018-06-04T02:10:08.112Z,99.90
2018-06-04T02:12:35.632Z,99.90
2018-06-04T02:15:04.124Z,99.90
2018-06-04T02:17:31.640Z,99.90
2018-06-04T02:19:59.132Z,99.90
2018-06-04T02:22:26.649Z,99.90
2018-06-04T02:24:54.146Z,99.90
2018-06-04T02:27:21.653Z,99.90
2018-06-04T02:29:49.140Z,99.90
2018-06-04T02:32:16.653Z,99.90
2018-06-04T02:34:44.183Z,99.90
2018-06-04T02:37:11.692Z,99.90
2018-06-04T02:39:39.210Z,99.90
2018-06-04T02:42:06.746Z,99.90
2018-06-04T02:44:34.287Z,99.90
2018-06-04T02:47:01.782Z,99.90
2018-06-04T02:49:29.297Z,99.90
2018-06-04T02:51:56.792Z,99.90
2018-06-04T02:54:24.322Z,99.90
2018-06-04T02:59:19.309Z,99.90
2018-06-04T03:01:46.797Z,99.90
2018-06-04T03:04:14.332Z,99.90
2018-06-04T03:06:41.905Z,99.90
2018-06-04T03:09:09.437Z,99.90
2018-06-04T03:11:36.941Z,99.90
2018-06-04T03:14:05.245Z,99.90
2018-06-04T03:16:33.016Z,99.90
2018-06-04T03:19:00.554Z,99.90
2018-06-04T03:21:28.249Z,99.90
2018-06-04T03:23:55.793Z,99.90
2018-06-04T03:26:23.273Z,99.90
2018-06-04T03:28:50.845Z,99.90
2018-06-04T03:31:18.365Z,99.90
2018-06-04T03:33:45.901Z,99.90
2018-06-04T03:36:13.391Z,99.90
2018-06-04T03:38:40.906Z,99.90
2018-06-04T03:41:08.408Z,99.90
2018-06-04T03:43:35.935Z,99.90
2018-06-04T03:46:03.468Z,99.90
2018-06-04T03:48:31.009Z,99.90
2018-06-04T03:50:58.508Z,99.90
2018-06-04T03:53:26.056Z,99.90
2018-06-04T03:58:21.080Z,99.90
2018-06-04T04:00:48.680Z,99.90
2018-06-04T04:03:16.191Z,99.90
2018-06-04T04:05:43.713Z,99.90
2018-06-04T04:08:11.221Z,99.90
2018-06-04T04:10:38.752Z,99.90
2018-06-04T04:13:06.449Z,99.90
2018-06-04T04:18:07.317Z,99.90
2018-06-04T04:20:34.846Z,99.90
2018-06-04T04:23:02.370Z,99.90
2018-06-04T04:25:29.897Z,99.90
2018-06-04T04:27:57.411Z,99.90
2018-06-04T04:30:25.050Z,99.90
2018-06-04T04:32:52.590Z,99.90
2018-06-04T04:35:20.127Z,99.90
2018-06-04T04:37:47.686Z,99.90
2018-06-04T04:40:15.161Z,99.90
2018-06-04T04:42:42.714Z,99.90
2018-06-04T04:45:10.224Z,99.90
2018-06-04T04:47:37.808Z,99.90
2018-06-04T04:50:05.326Z,99.90
2018-06-04T04:52:32.817Z,99.90
2018-06-04T04:55:00.349Z,99.90
2018-06-04T04:57:27.833Z,99.90
2018-06-04T04:59:55.357Z,99.90
2018-06-04T05:02:22.849Z,99.90
2018-06-04T05:04:50.363Z,99.90
2018-06-04T05:07:17.845Z,99.90
2018-06-04T05:09:45.385Z,99.90
2018-06-04T05:12:12.869Z,99.90
2018-06-04T05:14:40.400Z,99.90
2018-06-04T05:17:07.914Z,99.90
2018-06-04T05:19:35.571Z,99.90
2018-06-04T05:22:03.121Z,99.90
2018-06-04T05:24:30.637Z,99.90
2018-06-04T05:26:58.128Z,99.90
2018-06-04T05:29:25.628Z,99.90
2018-06-04T05:31:53.145Z,99.90
2018-06-04T05:34:20.633Z,99.90
2018-06-04T05:36:48.144Z,99.90
2018-06-04T05:39:15.668Z,99.90
2018-06-04T05:41:43.204Z,99.90
2018-06-04T05:44:10.709Z,99.90
2018-06-04T05:46:38.243Z,99.90
2018-06-04T05:49:05.737Z,99.90
2018-06-04T05:51:33.256Z,99.90
2018-06-04T05:54:00.757Z,99.90
2018-06-04T05:56:28.302Z,99.90
2018-06-04T05:58:55.956Z,99.90
2018-06-04T06:01:23.508Z,99.90
2018-06-04T06:03:51.024Z,99.90
2018-06-04T06:06:18.598Z,99.90
2018-06-04T06:08:46.282Z,99.90
2018-06-04T06:11:13.815Z,99.90
2018-06-04T06:13:41.613Z,99.90
2018-06-04T06:16:09.162Z,99.90
2018-06-04T06:18:36.696Z,99.90
2018-06-04T06:21:04.322Z,99.90
2018-06-04T06:23:31.909Z,99.90
2018-06-04T06:25:59.459Z,99.90
2018-06-04T06:28:27.218Z,99.90
2018-06-04T06:30:54.777Z,99.90
2018-06-04T06:33:22.329Z,99.90
2018-06-04T06:35:49.856Z,99.90
2018-06-04T06:38:17.339Z,99.90
2018-06-04T06:45:27.382Z,99.90
2018-06-04T06:47:55.728Z,99.90
2018-06-04T06:50:23.310Z,99.90
2018-06-04T06:52:50.845Z,99.90
2018-06-04T06:55:18.394Z,99.90
2018-06-04T06:57:45.958Z,99.90
2018-06-04T07:00:13.525Z,99.90
2018-06-04T07:05:08.515Z,99.90
2018-06-04T07:07:36.139Z,99.90
2018-06-04T07:10:03.692Z,99.90
2018-06-04T07:12:31.192Z,99.90
2018-06-04T07:14:58.676Z,99.90
2018-06-04T07:19:53.624Z,99.90
2018-06-04T07:22:21.145Z,99.90
2018-06-04T07:27:16.062Z,99.90
2018-06-04T07:29:43.602Z,99.90
2018-06-04T07:32:11.130Z,99.90
2018-06-04T07:34:38.621Z,99.90
2018-06-04T07:37:06.137Z,99.90
2018-06-04T07:39:33.633Z,99.90
2018-06-04T07:42:01.138Z,99.90
2018-06-04T07:44:28.631Z,99.90
2018-06-04T07:46:56.157Z,99.90
2018-06-04T07:49:23.648Z,99.90
2018-06-04T07:51:51.152Z,99.90
2018-06-04T07:56:46.081Z,99.90
2018-06-04T07:59:13.572Z,99.90
2018-06-04T08:01:41.093Z,99.90
2018-06-04T08:04:08.597Z,99.90
2018-06-04T08:06:36.217Z,99.90
2018-06-04T08:09:05.081Z,99.90
2018-06-04T08:11:32.597Z,99.90
2018-06-04T08:14:00.109Z,99.90
2018-06-04T08:21:22.488Z,99.90
2018-06-04T08:23:50.022Z,99.90
2018-06-04T08:26:17.513Z,99.90
2018-06-04T08:28:45.058Z,99.90
2018-06-04T08:36:07.657Z,99.90
2018-06-04T08:38:35.192Z,99.90
2018-06-04T08:43:30.175Z,99.90
2018-06-04T08:45:57.754Z,99.90
2018-06-04T08:48:25.212Z,99.90
2018-06-04T08:50:52.760Z,99.90
2018-06-04T08:53:20.233Z,99.90
2018-06-04T08:55:47.728Z,99.90
2018-06-04T08:58:15.237Z,99.90
2018-06-04T09:00:42.733Z,99.90
2018-06-04T09:03:10.245Z,99.90
2018-06-04T09:05:37.767Z,99.90
2018-06-04T09:08:05.302Z,98.50
2018-06-04T09:13:00.222Z,99.90
2018-06-04T09:15:27.722Z,98.50
2018-06-04T09:17:55.268Z,96.90
2018-06-04T09:20:22.761Z,97.40
2018-06-04T09:22:50.275Z,96.30
2018-06-04T09:25:17.781Z,95.30
2018-06-04T09:27:45.296Z,97.40
2018-06-04T09:30:12.816Z,96.30
2018-06-04T09:32:40.353Z,95.60
2018-06-04T09:35:07.856Z,93.00
2018-06-04T09:37:35.512Z,92.10
2018-06-04T09:40:03.149Z,91.90
2018-06-04T09:42:30.930Z,92.00
2018-06-04T09:47:26.119Z,91.20
2018-06-04T09:49:53.616Z,91.00
2018-06-04T09:52:21.145Z,90.00
2018-06-04T09:54:48.664Z,90.50
2018-06-04T09:57:16.149Z,90.00
2018-06-04T09:59:43.651Z,89.30
2018-06-04T10:04:38.600Z,82.40
2018-06-04T10:07:06.109Z,84.00
2018-06-04T10:09:33.644Z,85.80
2018-06-04T10:12:01.209Z,86.10
2018-06-04T10:14:28.773Z,85.60
2018-06-04T10:16:56.308Z,83.60
2018-06-04T10:19:23.849Z,82.80
2018-06-04T10:21:51.417Z,82.20
2018-06-04T10:24:19.099Z,81.20
2018-06-04T10:26:46.625Z,77.00
2018-06-04T10:29:14.237Z,76.30
2018-06-04T10:31:42.241Z,74.70
2018-06-04T10:36:37.505Z,72.60
2018-06-04T10:39:06.465Z,72.60
2018-06-04T10:41:34.025Z,68.80
2018-06-04T10:44:01.660Z,68.70
2018-06-04T10:48:56.865Z,71.10
2018-06-04T10:51:24.388Z,65.40
2018-06-04T10:53:51.982Z,66.50
2018-06-04T10:56:19.516Z,66.70
2018-06-04T10:58:47.078Z,69.20
2018-06-04T11:01:14.651Z,65.00
2018-06-04T11:03:42.200Z,65.30
2018-06-04T11:06:10.329Z,62.00
2018-06-04T11:11:05.355Z,62.40
2018-06-04T11:13:32.905Z,61.90
2018-06-04T11:16:00.412Z,63.30
2018-06-04T11:18:27.931Z,61.70
2018-06-04T11:20:55.458Z,61.50
2018-06-04T11:23:22.954Z,61.40
2018-06-04T11:25:50.511Z,60.60
2018-06-04T11:30:45.444Z,59.40
2018-06-04T11:33:12.961Z,60.80
2018-06-04T11:40:35.369Z,59.00
2018-06-04T11:43:02.888Z,58.40
2018-06-04T11:45:30.413Z,54.70
2018-06-04T11:47:57.924Z,53.90
2018-06-04T11:50:25.557Z,56.40
2018-06-04T11:52:53.052Z,56.10
2018-06-04T11:55:20.560Z,58.70
2018-06-04T11:57:48.053Z,56.60
2018-06-04T12:05:10.505Z,60.20
2018-06-04T12:07:37.976Z,55.80
2018-06-04T12:10:05.494Z,58.70
2018-06-04T12:12:33.008Z,52.50
2018-06-04T12:15:00.540Z,53.60
2018-06-04T12:17:28.101Z,52.20
2018-06-04T12:19:55.717Z,52.40
2018-06-04T12:22:23.328Z,52.10
2018-06-04T12:24:51.229Z,50.70
2018-06-04T12:27:19.021Z,52.80
2018-06-04T12:29:46.745Z,51.90
2018-06-04T12:37:09.442Z,54.60
2018-06-04T12:39:37.279Z,54.30
2018-06-04T12:42:04.813Z,51.30
2018-06-04T12:44:32.336Z,50.10
2018-06-04T12:47:00.032Z,49.40
2018-06-04T12:49:27.599Z,49.90
2018-06-04T12:51:55.208Z,51.50
2018-06-04T12:54:22.788Z,47.50
2018-06-04T12:56:50.333Z,47.40
2018-06-04T12:59:17.911Z,48.70
2018-06-04T13:01:45.499Z,47.00
2018-06-04T13:04:13.086Z,47.80
2018-06-04T13:06:40.664Z,47.10
2018-06-04T13:11:35.865Z,45.10
2018-06-04T13:16:31.285Z,44.50
2018-06-04T13:18:58.828Z,42.20
2018-06-04T13:21:26.456Z,42.20
2018-06-04T13:23:53.984Z,41.50
2018-06-04T13:28:49.518Z,42.20
2018-06-04T13:31:17.103Z,41.00
2018-06-04T13:33:44.584Z,41.80
2018-06-04T13:36:12.112Z,40.00
2018-06-04T13:38:39.643Z,39.40
2018-06-04T13:43:34.705Z,40.20
2018-06-04T13:46:02.268Z,41.90
2018-06-04T13:48:29.776Z,40.40
2018-06-04T13:50:57.309Z,38.30
2018-06-04T13:53:24.857Z,38.80
2018-06-04T13:55:52.394Z,38.30
2018-06-04T13:58:20.024Z,37.40
2018-06-04T14:03:15.059Z,36.80
2018-06-04T14:05:42.625Z,38.80
2018-06-04T14:08:10.199Z,38.50
2018-06-04T14:10:37.759Z,37.20
2018-06-04T14:13:05.486Z,39.30
2018-06-04T14:18:00.590Z,40.50
2018-06-04T14:20:28.136Z,39.70
2018-06-04T14:22:55.719Z,39.40
2018-06-04T14:32:45.717Z,40.70
2018-06-04T14:35:13.306Z,41.70
2018-06-04T14:37:40.964Z,40.90
2018-06-04T14:40:08.584Z,41.70
2018-06-04T14:42:36.277Z,40.70
2018-06-04T14:45:04.699Z,41.90
2018-06-04T14:47:32.720Z,40.90
2018-06-04T14:50:00.432Z,43.50
2018-06-04T14:52:28.149Z,42.10
2018-06-04T14:54:55.762Z,42.80
2018-06-04T14:57:23.396Z,41.40
2018-06-04T14:59:51.060Z,43.10
2018-06-04T15:02:18.790Z,44.80
2018-06-04T15:04:46.443Z,45.80
2018-06-04T15:09:41.663Z,48.40
2018-06-04T15:12:09.289Z,47.90
2018-06-04T15:14:36.856Z,48.30
2018-06-04T15:17:04.684Z,49.60
2018-06-04T15:19:32.334Z,50.30
2018-06-04T15:21:59.973Z,50.40
2018-06-04T15:24:27.716Z,49.50
2018-06-04T15:26:55.316Z,50.90
2018-06-04T15:29:22.856Z,52.20
2018-06-04T15:31:50.402Z,52.20
2018-06-04T15:34:17.977Z,52.50
2018-06-04T15:36:45.848Z,53.50
2018-06-04T15:39:13.531Z,54.70
2018-06-04T15:41:41.141Z,54.60
2018-06-04T15:44:08.742Z,55.00
2018-06-04T15:46:36.956Z,55.30
2018-06-04T15:51:32.190Z,57.10
2018-06-04T15:56:27.120Z,56.00
2018-06-04T15:58:54.616Z,55.60
2018-06-04T16:01:22.131Z,54.80
2018-06-04T16:03:49.624Z,56.10
2018-06-04T16:06:17.136Z,55.50
2018-06-04T16:11:12.044Z,57.40
2018-06-04T16:16:07.255Z,56.10
2018-06-04T16:18:34.896Z,56.50
2018-06-04T16:21:02.517Z,55.40
2018-06-04T16:23:30.327Z,55.20
2018-06-04T16:25:57.906Z,57.10
2018-06-04T16:30:53.132Z,57.10
2018-06-04T16:35:48.796Z,55.70
2018-06-04T16:38:16.463Z,56.50
2018-06-04T16:40:44.104Z,56.90
2018-06-04T16:45:39.138Z,56.30
2018-06-04T16:48:07.683Z,57.40
2018-06-04T16:50:35.239Z,56.90
2018-06-04T16:53:02.993Z,56.00
2018-06-04T16:55:30.625Z,57.20
2018-06-04T16:57:58.330Z,58.00
2018-06-04T17:00:25.950Z,57.80
2018-06-04T17:02:53.708Z,56.20
2018-06-04T17:05:21.973Z,56.60
2018-06-04T17:07:49.668Z,57.40
2018-06-04T17:10:17.948Z,58.50
2018-06-04T17:12:45.708Z,58.90
2018-06-04T17:15:13.296Z,59.60
2018-06-04T17:17:41.549Z,58.80
2018-06-04T17:20:09.152Z,59.10
2018-06-04T17:25:04.417Z,59.40
2018-06-04T17:27:31.967Z,59.60
2018-06-04T17:29:59.609Z,61.70
2018-06-04T17:32:27.215Z,60.60
2018-06-04T17:34:54.775Z,60.10
2018-06-04T17:37:22.594Z,61.40
2018-06-04T17:39:50.349Z,61.60
2018-06-04T17:44:45.537Z,64.40
2018-06-04T17:47:13.469Z,65.20
2018-06-04T17:49:41.121Z,66.60
2018-06-04T17:52:08.871Z,66.80
2018-06-04T17:54:36.476Z,68.90
2018-06-04T17:57:04.266Z,67.10
2018-06-04T17:59:33.181Z,67.90
2018-06-04T18:04:28.313Z,68.90
2018-06-04T18:06:56.915Z,71.00
2018-06-04T18:09:24.469Z,69.90
2018-06-04T18:11:52.249Z,70.20
2018-06-04T18:14:19.786Z,71.60
2018-06-04T18:16:47.353Z,72.50
2018-06-04T18:19:14.860Z,73.80
2018-06-04T18:21:42.370Z,75.10
2018-06-04T18:24:10.421Z,76.40
2018-06-04T18:29:06.309Z,80.40
2018-06-04T18:31:33.949Z,81.60
2018-06-04T18:34:01.480Z,85.00
2018-06-04T18:38:56.671Z,90.80
2018-06-04T18:41:24.359Z,92.30
2018-06-04T18:46:19.365Z,93.10
2018-06-04T18:48:46.928Z,93.90
2018-06-04T18:51:14.671Z,94.40
2018-06-04T18:53:42.259Z,95.70
2018-06-04T18:56:09.829Z,96.30
2018-06-04T18:58:37.429Z,97.50
2018-06-04T19:01:05.233Z,98.00
2018-06-04T19:03:32.808Z,98.50
2018-06-04T19:06:00.392Z,98.80
2018-06-04T19:08:27.892Z,99.90
2018-06-04T19:10:55.426Z,99.90
2018-06-04T19:13:22.936Z,99.90
2018-06-04T19:15:50.452Z,99.90
2018-06-04T19:18:17.971Z,99.90
2018-06-04T19:25:40.558Z,99.90
2018-06-04T19:28:08.101Z,99.90
2018-06-04T19:33:04.389Z,99.90
2018-06-04T19:35:31.908Z,99.90
2018-06-04T19:40:26.965Z,99.90
2018-06-04T19:42:54.472Z,99.90
2018-06-04T19:45:21.989Z,99.90
2018-06-04T19:47:49.543Z,99.90
2018-06-04T19:50:17.068Z,99.90
2018-06-04T19:52:44.632Z,99.90
2018-06-04T19:57:39.813Z,99.90
2018-06-04T20:00:07.412Z,99.90
2018-06-04T20:02:34.964Z,99.90
2018-06-04T20:07:29.998Z,99.90
2018-06-04T20:09:57.520Z,99.90
2018-06-04T20:12:25.078Z,99.90
2018-06-04T20:14:52.610Z,99.90
2018-06-04T20:17:20.193Z,99.90
2018-06-04T20:19:47.751Z,99.90
2018-06-04T20:22:15.280Z,99.90
2018-06-04T20:24:42.857Z,99.90
2018-06-04T20:27:10.412Z,99.90
2018-06-04T20:29:37.928Z,99.90
2018-06-04T20:32:05.471Z,99.90
2018-06-04T20:34:32.989Z,99.90
2018-06-04T20:37:00.480Z,99.90
2018-06-04T20:39:27.994Z,99.90
2018-06-04T20:41:55.483Z,99.90
2018-06-04T20:44:23.061Z,99.90
2018-06-04T20:46:50.575Z,99.90
2018-06-04T20:49:18.076Z,99.90
2018-06-04T20:51:45.556Z,99.90
2018-06-04T20:56:40.497Z,99.90
2018-06-04T20:59:08.080Z,99.90
2018-06-04T21:01:35.571Z,99.90
2018-06-04T21:04:03.096Z,99.90
2018-06-04T21:06:30.601Z,99.90
2018-06-04T21:11:25.534Z,99.90
2018-06-04T21:13:53.086Z,99.90
2018-06-04T21:16:20.592Z,99.90
2018-06-04T21:18:48.077Z,99.90
2018-06-04T21:21:15.616Z,99.90
2018-06-04T21:23:43.112Z,99.90
2018-06-04T21:28:38.084Z,99.90
2018-06-04T21:31:05.633Z,99.90
2018-06-04T21:33:33.148Z,99.90
2018-06-04T21:38:28.079Z,99.90
2018-06-04T21:40:55.597Z,99.90
2018-06-04T21:43:23.117Z,99.90
2018-06-04T21:45:50.638Z,99.90
2018-06-04T21:50:45.586Z,99.90
2018-06-04T21:53:13.100Z,99.90
2018-06-04T21:55:40.624Z,99.90
2018-06-04T21:58:08.153Z,99.90
2018-06-04T22:03:38.826Z,99.90
2018-06-04T22:06:06.348Z,99.90
2018-06-04T22:11:01.280Z,99.90
2018-06-04T22:13:28.784Z,99.90
2018-06-04T22:15:56.328Z,99.90
2018-06-04T22:18:23.824Z,99.90
2018-06-04T22:20:51.349Z,99.90
2018-06-04T22:23:18.856Z,99.90
2018-06-04T22:25:46.408Z,99.90
2018-06-04T22:28:13.936Z,99.90
2018-06-04T22:30:41.480Z,99.90
2018-06-04T22:33:09.038Z,99.90
2018-06-04T22:35:36.567Z,99.90
2018-06-04T22:38:04.085Z,99.90
2018-06-04T22:40:31.631Z,99.90
2018-06-04T22:42:59.112Z,99.90
2018-06-04T22:45:26.644Z,99.90
2018-06-04T22:47:54.137Z,99.90
2018-06-04T22:50:21.640Z,99.90
2018-06-04T22:52:49.149Z,99.90
2018-06-04T22:55:16.665Z,99.90
2018-06-04T22:57:44.157Z,99.90
2018-06-04T23:00:30.845Z,99.90
2018-06-04T23:02:58.344Z,99.90
2018-06-04T23:05:26.033Z,99.90
2018-06-04T23:07:53.520Z,99.90
2018-06-04T23:10:21.031Z,99.90
2018-06-04T23:12:48.525Z,99.90
2018-06-04T23:15:16.018Z,99.90
2018-06-04T23:17:43.531Z,99.90
2018-06-04T23:20:11.032Z,99.90
2018-06-04T23:22:38.597Z,99.90
2018-06-04T23:25:06.092Z,99.90
2018-06-04T23:27:34.125Z,99.90
2018-06-04T23:30:01.629Z,99.90
2018-06-04T23:32:29.158Z,99.90
2018-06-04T23:34:56.652Z,99.90
2018-06-04T23:37:24.165Z,99.90
2018-06-04T23:39:51.645Z,99.90
2018-06-04T23:42:19.169Z,99.90
2018-06-04T23:44:46.676Z,99.90
2018-06-04T23:47:14.182Z,99.90
2018-06-04T23:49:41.692Z,99.90
2018-06-04T23:52:09.221Z,99.90
2018-06-04T23:54:36.704Z,99.90
2018-06-04T23:57:04.246Z,99.90
2018-06-04T23:59:31.752Z,99.90
